Terminal Aerodrome Forecast
Issued by NWS Spokane, WA

Home | Current Version | Previous Version | Text Only | Print | Product List | Glossary On
Versions: 1 2 3 4 5 6 7 8 9 10 11 12 13 14 15 16 17 18 19 20 21 22 23 24 25 26 27 28 29 30 31 32 33 34 35 36 37 38 39 40
988
FTUS46 KOTX 201739
TAFGEG
TAF
KGEG 201739Z 2018/2118 16013G18KT 4SM -RA BR BKN006 BKN024 OVC035
     FM202100 23012G16KT 6SM -SHRA BR SCT010 BKN020
     FM210100 22009KT P6SM -RA SCT025 OVC050
     FM210400 20006KT P6SM BKN012 OVC025
     FM211100 10005KT 4SM BR BCFG FEW002 BKN006
     FM211700 08006KT 6SM -RA BR BKN012 OVC030=

USA.gov is the U.S. government's official web portal to all federal, state and local government web resources and services.